Time;durP1;ratioP1;P1;durP2;ratioP2;P2;SDS_P1;SDS_P2;PMS_P1;PMS_P2;Temp;Humidity;BMP_temperature;BMP_pressure;BME280_temperature;BME280_humidity;BME280_pressure;Samples;Min_cycle;Max_cycle;Signal;HPM_P1;HPM_P2
2023/09/09 00:01:59;;;;;;;13.53;12.10;;;20.60;99.90;;;;;;5045714;28;20578;-72
2023/09/09 00:04:27;;;;;;;11.50;10.30;;;20.50;99.90;;;;;;5048599;28;20444;-73
2023/09/09 00:06:56;;;;;;;11.33;10.20;;;20.50;99.90;;;;;;5038993;28;20470;-74
2023/09/09 00:09:22;;;;;;;9.77;8.80;;;20.40;99.90;;;;;;5046846;28;20506;-73
2023/09/09 00:11:49;;;;;;;12.10;10.70;;;20.40;99.90;;;;;;5053140;28;20529;-73
2023/09/09 00:14:16;;;;;;;12.50;11.30;;;20.40;99.90;;;;;;5051654;28;20530;-72
2023/09/09 00:16:43;;;;;;;12.07;10.80;;;20.30;99.90;;;;;;5052128;28;20555;-74
2023/09/09 00:19:10;;;;;;;15.40;12.73;;;20.40;99.90;;;;;;5048036;28;20482;-72
2023/09/09 00:21:38;;;;;;;12.77;10.27;;;20.40;99.90;;;;;;5050515;28;20473;-72
2023/09/09 00:24:06;;;;;;;12.10;10.90;;;20.30;99.90;;;;;;5050088;28;20443;-72
2023/09/09 00:26:34;;;;;;;12.80;11.40;;;20.30;99.90;;;;;;5050492;28;20548;-71
2023/09/09 00:29:00;;;;;;;12.77;11.47;;;20.20;99.90;;;;;;5046115;28;20479;-72
2023/09/09 00:31:27;;;;;;;11.40;10.30;;;20.20;99.90;;;;;;5049435;28;20444;-72
2023/09/09 00:33:55;;;;;;;13.03;11.83;;;20.10;99.90;;;;;;5043183;28;20898;-72
2023/09/09 00:36:22;;;;;;;12.90;11.60;;;20.10;99.90;;;;;;5048939;28;20462;-71
2023/09/09 00:38:50;;;;;;;13.70;11.83;;;20.00;99.90;;;;;;5049449;28;20443;-73
2023/09/09 00:41:18;;;;;;;11.63;10.50;;;20.00;99.90;;;;;;5047840;28;20576;-75
2023/09/09 00:43:45;;;;;;;11.63;10.37;;;19.90;99.90;;;;;;5048574;28;20536;-72
2023/09/09 00:46:13;;;;;;;13.93;12.53;;;19.90;99.90;;;;;;5047856;28;20465;-72
2023/09/09 00:48:40;;;;;;;13.60;12.33;;;19.80;99.90;;;;;;5049678;28;20513;-75
2023/09/09 00:51:10;;;;;;;13.37;12.07;;;19.90;99.90;;;;;;5044527;28;20444;-73
2023/09/09 00:53:37;;;;;;;14.93;11.77;;;19.80;99.90;;;;;;5049342;28;20545;-71
2023/09/09 00:56:07;;;;;;;11.43;10.30;;;19.70;99.90;;;;;;5050396;28;20505;-73
2023/09/09 00:58:34;;;;;;;19.30;15.77;;;19.70;99.90;;;;;;5050655;28;20541;-70
2023/09/09 01:01:03;;;;;;;22.53;17.20;;;19.70;99.90;;;;;;5052170;28;20445;-73
2023/09/09 01:03:30;;;;;;;18.00;14.30;;;19.70;99.90;;;;;;5051683;28;20528;-71
2023/09/09 01:05:57;;;;;;;18.23;14.53;;;19.70;99.90;;;;;;5048888;28;20470;-73
2023/09/09 01:08:27;;;;;;;15.97;14.10;;;19.70;99.90;;;;;;5051635;28;20442;-74
2023/09/09 01:10:55;;;;;;;16.20;14.60;;;19.70;99.90;;;;;;5045303;28;20533;-72
2023/09/09 01:13:23;;;;;;;16.90;13.27;;;19.60;99.90;;;;;;5052451;28;20442;-72
2023/09/09 01:15:51;;;;;;;15.83;12.30;;;19.70;99.90;;;;;;5046677;28;20462;-71
2023/09/09 01:18:19;;;;;;;17.63;13.13;;;19.60;99.90;;;;;;5047683;28;20430;-73
2023/09/09 01:20:53;;;;;;;14.33;12.90;;;19.60;99.90;;;;;;5052031;28;20438;-75
2023/09/09 01:23:22;;;;;;;14.93;12.83;;;19.50;99.90;;;;;;5051388;28;20567;-73
2023/09/09 01:25:48;;;;;;;15.70;14.10;;;19.50;99.90;;;;;;5044068;28;20544;-73
2023/09/09 01:28:16;;;;;;;18.17;14.93;;;19.50;99.90;;;;;;5051108;28;20995;-72
2023/09/09 01:30:43;;;;;;;14.53;13.10;;;19.50;99.90;;;;;;5052000;28;20457;-74
2023/09/09 01:33:10;;;;;;;14.07;12.60;;;19.50;99.90;;;;;;5051634;28;20434;-72
2023/09/09 01:35:38;;;;;;;14.40;12.80;;;19.50;99.90;;;;;;5051442;28;20474;-73
2023/09/09 01:38:04;;;;;;;14.20;12.67;;;19.40;99.90;;;;;;5051393;28;20529;-72
2023/09/09 01:40:34;;;;;;;15.00;13.50;;;19.40;99.90;;;;;;5050247;28;20883;-70
2023/09/09 01:43:01;;;;;;;14.90;13.30;;;19.40;99.90;;;;;;5051784;28;20515;-72
2023/09/09 01:45:28;;;;;;;16.13;12.37;;;19.40;99.90;;;;;;5051310;28;20472;-73
2023/09/09 01:47:55;;;;;;;13.73;12.33;;;19.40;99.90;;;;;;5051672;28;20529;-71
2023/09/09 01:50:22;;;;;;;12.77;11.43;;;19.40;99.90;;;;;;5047340;28;20503;-71
2023/09/09 01:52:49;;;;;;;16.83;15.03;;;19.30;99.90;;;;;;5045830;28;20885;-73
2023/09/09 01:55:16;;;;;;;16.60;15.00;;;19.30;99.90;;;;;;5050975;28;20463;-72
2023/09/09 01:57:46;;;;;;;14.93;13.43;;;19.30;99.90;;;;;;5054432;28;20442;-72
2023/09/09 02:00:13;;;;;;;13.90;12.60;;;19.30;99.90;;;;;;5055715;28;20528;-71
2023/09/09 02:02:40;;;;;;;12.67;11.53;;;19.30;99.90;;;;;;5054420;28;21107;-73
2023/09/09 02:05:09;;;;;;;13.60;12.40;;;19.30;99.90;;;;;;5055194;28;20529;-72
2023/09/09 02:07:36;;;;;;;12.93;11.73;;;19.30;99.90;;;;;;5053803;28;20460;-73
2023/09/09 02:10:04;;;;;;;15.57;14.17;;;19.20;99.90;;;;;;5054806;28;20537;-73
2023/09/09 02:12:31;;;;;;;14.07;12.67;;;19.20;99.90;;;;;;5055353;28;20466;-72
2023/09/09 02:14:59;;;;;;;13.40;12.10;;;19.10;99.90;;;;;;5053191;28;20456;-73
2023/09/09 02:17:26;;;;;;;15.20;13.90;;;19.10;99.90;;;;;;5054338;28;20463;-72
2023/09/09 02:19:55;;;;;;;14.83;12.90;;;19.00;99.90;;;;;;5050946;28;20478;-73
2023/09/09 02:22:22;;;;;;;15.77;13.30;;;19.00;99.90;;;;;;5055088;28;20477;-72
2023/09/09 02:24:54;;;;;;;13.40;12.10;;;19.00;99.90;;;;;;5045728;28;20529;-71
2023/09/09 02:27:21;;;;;;;14.07;11.30;;;19.00;99.90;;;;;;5054621;28;20465;-71
2023/09/09 02:29:48;;;;;;;14.37;12.20;;;19.10;99.90;;;;;;5044064;28;20533;-72
2023/09/09 02:32:16;;;;;;;14.00;12.63;;;19.10;99.90;;;;;;5051418;28;20806;-73
2023/09/09 02:34:43;;;;;;;14.70;13.10;;;19.10;99.90;;;;;;5054666;28;20535;-71
2023/09/09 02:37:16;;;;;;;14.43;13.07;;;19.00;99.90;;;;;;5053820;28;20964;-71
2023/09/09 02:39:45;;;;;;;15.80;12.03;;;19.00;99.90;;;;;;5053677;28;20846;-74
2023/09/09 02:42:14;;;;;;;14.60;13.13;;;19.00;99.90;;;;;;5054430;28;20490;-73
2023/09/09 02:44:42;;;;;;;14.23;12.70;;;19.00;99.90;;;;;;5053187;28;20877;-71
2023/09/09 02:47:12;;;;;;;14.27;12.97;;;19.00;99.90;;;;;;5053999;28;20458;-72
2023/09/09 02:49:41;;;;;;;24.57;14.27;;;18.90;99.90;;;;;;5052736;28;20454;-71
2023/09/09 02:52:09;;;;;;;13.33;11.83;;;18.90;99.90;;;;;;5044083;28;20493;-70
2023/09/09 02:54:36;;;;;;;15.40;13.73;;;18.90;99.90;;;;;;5054064;28;20449;-73
2023/09/09 02:57:04;;;;;;;15.27;13.70;;;18.90;99.90;;;;;;5053930;28;20468;-72
2023/09/09 02:59:32;;;;;;;15.47;13.97;;;18.90;99.90;;;;;;5054048;28;20446;-73
2023/09/09 03:02:00;;;;;;;15.80;14.20;;;18.80;99.90;;;;;;5043845;28;20560;-71
2023/09/09 03:04:27;;;;;;;14.93;13.40;;;18.70;99.90;;;;;;5048878;28;20457;-70
2023/09/09 03:06:55;;;;;;;14.23;12.83;;;18.70;99.90;;;;;;5050136;28;20546;-71
2023/09/09 03:09:22;;;;;;;13.50;11.80;;;18.60;99.90;;;;;;5049604;28;20525;-71
2023/09/09 03:11:49;;;;;;;13.40;12.10;;;18.70;99.90;;;;;;5050743;28;20491;-71
2023/09/09 03:14:16;;;;;;;15.17;13.53;;;18.60;99.90;;;;;;5054613;28;20509;-72
2023/09/09 03:16:42;;;;;;;15.37;13.97;;;18.60;99.90;;;;;;5053076;28;21006;-72
2023/09/09 03:19:10;;;;;;;14.30;13.07;;;18.60;99.90;;;;;;5047045;28;20442;-73
2023/09/09 03:21:37;;;;;;;13.60;12.30;;;18.50;99.90;;;;;;5051468;28;20446;-74
2023/09/09 03:24:05;;;;;;;14.07;12.63;;;18.40;99.90;;;;;;5053357;28;20592;-73
2023/09/09 03:26:33;;;;;;;14.87;12.83;;;18.40;99.90;;;;;;5053356;28;20549;-74
2023/09/09 03:29:00;;;;;;;14.03;11.57;;;18.40;99.90;;;;;;5053468;28;20452;-72
2023/09/09 03:31:27;;;;;;;12.17;11.13;;;18.30;99.90;;;;;;5053500;28;20533;-71
2023/09/09 03:33:54;;;;;;;13.93;12.40;;;18.30;99.90;;;;;;5052055;28;20443;-73
2023/09/09 03:36:21;;;;;;;17.40;12.60;;;18.40;99.90;;;;;;5046250;28;20477;-71
2023/09/09 03:38:48;;;;;;;13.97;12.57;;;18.40;99.90;;;;;;5052836;28;20537;-69
2023/09/09 03:41:16;;;;;;;14.10;12.70;;;18.30;99.90;;;;;;5044910;28;20539;-72
2023/09/09 03:43:43;;;;;;;13.67;12.47;;;18.20;99.90;;;;;;5052360;28;20478;-71
2023/09/09 03:46:10;;;;;;;16.10;12.73;;;18.20;99.90;;;;;;5053018;28;20469;-72
2023/09/09 03:48:37;;;;;;;16.10;14.40;;;18.20;99.90;;;;;;5045707;28;20802;-73
2023/09/09 03:51:04;;;;;;;15.27;13.87;;;18.20;99.90;;;;;;5052643;28;20453;-72
2023/09/09 03:53:31;;;;;;;15.20;13.90;;;18.20;99.90;;;;;;5052024;28;20481;-72
2023/09/09 03:56:00;;;;;;;14.57;13.23;;;18.10;99.90;;;;;;5053315;28;20547;-71
2023/09/09 03:58:28;;;;;;;14.23;12.93;;;18.10;99.90;;;;;;5051964;28;20445;-70
2023/09/09 04:01:06;;;;;;;14.53;13.23;;;18.10;99.90;;;;;;5053368;28;20454;-73
2023/09/09 04:03:34;;;;;;;18.43;16.57;;;18.00;99.90;;;;;;5047449;28;20558;-73
2023/09/09 04:06:03;;;;;;;16.60;15.00;;;17.90;99.90;;;;;;5048026;28;20861;-73
2023/09/09 04:08:31;;;;;;;15.83;14.43;;;17.90;99.90;;;;;;5045804;28;20852;-73
2023/09/09 04:10:58;;;;;;;14.57;13.07;;;17.80;99.90;;;;;;5042033;28;20470;-71
2023/09/09 04:13:24;;;;;;;17.80;14.83;;;17.80;99.90;;;;;;5046228;28;20449;-74
2023/09/09 04:15:55;;;;;;;14.90;13.60;;;17.70;99.90;;;;;;5049054;28;20560;-73
2023/09/09 04:18:21;;;;;;;16.63;14.93;;;17.70;99.90;;;;;;5049157;28;20512;-72
2023/09/09 04:20:49;;;;;;;15.90;14.37;;;17.70;99.90;;;;;;5051462;28;20453;-70
2023/09/09 04:23:17;;;;;;;19.03;16.80;;;17.60;99.90;;;;;;5053033;28;20474;-74
2023/09/09 04:25:44;;;;;;;16.23;14.63;;;17.60;99.90;;;;;;5047680;28;20476;-72
2023/09/09 04:28:12;;;;;;;19.07;16.47;;;17.60;99.90;;;;;;5050094;28;20964;-71
2023/09/09 04:30:39;;;;;;;16.13;14.43;;;17.50;99.90;;;;;;5051402;28;20472;-73
2023/09/09 04:33:07;;;;;;;16.47;14.93;;;17.50;99.90;;;;;;5051972;28;20800;-71
2023/09/09 04:35:38;;;;;;;16.20;14.67;;;17.60;99.90;;;;;;5051409;28;20461;-72
2023/09/09 04:38:04;;;;;;;17.40;15.60;;;17.60;99.90;;;;;;5050847;28;20949;-73
2023/09/09 04:40:31;;;;;;;14.50;13.10;;;17.50;99.90;;;;;;5051328;28;20454;-72
2023/09/09 04:42:58;;;;;;;15.47;13.87;;;17.50;99.90;;;;;;5046163;28;20983;-71
2023/09/09 04:45:25;;;;;;;17.10;15.23;;;17.50;99.90;;;;;;5051445;28;20447;-71
2023/09/09 04:47:52;;;;;;;17.77;16.10;;;17.50;99.90;;;;;;5049732;28;20456;-72
2023/09/09 04:50:21;;;;;;;14.70;13.20;;;17.50;99.90;;;;;;5051512;28;20548;-73
2023/09/09 04:52:48;;;;;;;15.90;14.30;;;17.60;99.90;;;;;;5051296;28;20528;-71
2023/09/09 04:55:16;;;;;;;16.67;15.17;;;17.50;99.90;;;;;;5052008;28;20933;-71
2023/09/09 04:57:43;;;;;;;17.03;14.57;;;17.60;99.90;;;;;;5048562;28;20560;-71
2023/09/09 05:00:10;;;;;;;14.40;13.00;;;17.60;99.90;;;;;;5050968;28;20532;-74
2023/09/09 05:02:38;;;;;;;16.50;15.00;;;17.60;99.90;;;;;;5048805;28;20481;-71
2023/09/09 05:05:07;;;;;;;16.93;15.30;;;17.50;99.90;;;;;;5044225;28;20470;-72
2023/09/09 05:07:35;;;;;;;20.40;17.00;;;17.50;99.90;;;;;;5048413;28;20442;-73
2023/09/09 05:10:04;;;;;;;15.50;13.83;;;17.50;99.90;;;;;;5049381;28;20450;-71
2023/09/09 05:12:31;;;;;;;15.83;14.40;;;17.50;99.90;;;;;;5049676;28;20476;-70
2023/09/09 05:14:58;;;;;;;16.67;14.83;;;17.50;99.90;;;;;;5050922;28;20544;-74
2023/09/09 05:17:24;;;;;;;19.30;15.73;;;17.60;99.90;;;;;;5048908;28;20468;-74
2023/09/09 05:19:51;;;;;;;16.07;14.60;;;17.50;99.90;;;;;;5043755;28;20444;-72
2023/09/09 05:22:18;;;;;;;18.30;15.77;;;17.60;99.90;;;;;;5051470;28;20442;-70
2023/09/09 05:24:47;;;;;;;17.00;15.30;;;17.70;99.90;;;;;;5054942;28;20489;-72
2023/09/09 05:27:14;;;;;;;17.73;16.03;;;17.70;99.90;;;;;;5054984;28;20502;-71
2023/09/09 05:29:42;;;;;;;17.57;15.30;;;17.80;99.90;;;;;;5056386;28;20521;-70
2023/09/09 05:32:09;;;;;;;18.17;16.47;;;17.80;99.90;;;;;;5056169;28;20442;-73
2023/09/09 05:34:37;;;;;;;16.50;14.83;;;17.90;99.90;;;;;;5055007;28;20533;-72
2023/09/09 05:37:04;;;;;;;15.20;13.70;;;18.00;99.90;;;;;;5050184;28;20464;-72
2023/09/09 05:39:31;;;;;;;16.00;14.47;;;18.10;99.90;;;;;;5056109;28;20448;-73
2023/09/09 05:42:00;;;;;;;20.03;14.87;;;18.10;99.90;;;;;;5056292;28;20533;-73
2023/09/09 05:44:26;;;;;;;15.73;14.27;;;18.20;99.90;;;;;;5055606;28;20474;-74
2023/09/09 05:46:54;;;;;;;17.10;15.40;;;18.40;99.90;;;;;;5047516;28;20461;-72
2023/09/09 05:49:21;;;;;;;16.80;15.13;;;18.50;99.90;;;;;;5054927;28;20448;-73
2023/09/09 05:51:48;;;;;;;17.37;15.63;;;18.60;99.90;;;;;;5055687;28;20453;-73
2023/09/09 05:54:15;;;;;;;18.40;12.73;;;18.70;99.90;;;;;;5055472;28;20473;-71
2023/09/09 05:56:41;;;;;;;16.43;13.73;;;18.90;99.90;;;;;;5055694;28;20466;-71
2023/09/09 05:59:11;;;;;;;19.43;16.73;;;19.30;99.90;;;;;;5055446;28;20442;-71
2023/09/09 06:01:38;;;;;;;13.77;12.57;;;20.30;99.90;;;;;;5055449;28;20441;-71
2023/09/09 06:04:05;;;;;;;18.47;13.10;;;21.30;99.90;;;;;;5047462;28;20497;-72
2023/09/09 06:06:32;;;;;;;13.50;12.20;;;22.50;99.90;;;;;;5052843;28;20478;-70
2023/09/09 06:08:59;;;;;;;16.30;14.40;;;23.60;99.90;;;;;;5053881;28;20937;-73
2023/09/09 06:11:26;;;;;;;16.33;14.70;;;24.30;99.90;;;;;;5054144;28;20445;-73
2023/09/09 06:13:53;;;;;;;13.60;12.37;;;25.30;99.90;;;;;;5052532;28;20446;-70
2023/09/09 06:16:21;;;;;;;14.87;13.57;;;25.90;99.90;;;;;;5053267;28;20465;-73
2023/09/09 06:18:48;;;;;;;13.53;11.90;;;26.60;99.90;;;;;;5053149;28;20473;-71
2023/09/09 06:21:15;;;;;;;16.13;12.20;;;27.20;97.50;;;;;;5053010;28;20934;-73
2023/09/09 06:23:42;;;;;;;12.33;11.17;;;27.60;95.20;;;;;;5054723;28;20576;-71
2023/09/09 06:26:08;;;;;;;12.77;11.63;;;28.20;93.90;;;;;;5055048;28;21031;-73
2023/09/09 06:28:36;;;;;;;13.30;11.97;;;28.80;92.30;;;;;;5053846;28;20450;-70
2023/09/09 06:31:02;;;;;;;16.13;14.53;;;29.10;90.90;;;;;;5054642;28;20813;-71
2023/09/09 06:33:31;;;;;;;16.60;15.13;;;29.80;90.30;;;;;;5054675;28;20449;-72
2023/09/09 06:35:57;;;;;;;28.57;25.60;;;30.70;87.80;;;;;;5053851;28;20468;-72
2023/09/09 06:38:24;;;;;;;15.17;13.67;;;31.00;85.70;;;;;;5054048;28;20438;-72
2023/09/09 06:40:51;;;;;;;14.87;13.57;;;31.00;84.70;;;;;;5053476;28;20438;-72
2023/09/09 06:43:20;;;;;;;18.13;16.30;;;31.20;84.30;;;;;;5054749;28;21015;-72
2023/09/09 06:45:47;;;;;;;24.40;22.10;;;31.10;83.60;;;;;;5053649;28;21002;-72
2023/09/09 06:48:16;;;;;;;14.80;13.40;;;30.90;84.40;;;;;;5051626;28;20804;-74
2023/09/09 06:50:46;;;;;;;19.37;17.43;;;31.00;83.70;;;;;;5053092;28;20449;-73
2023/09/09 06:53:13;;;;;;;18.77;16.90;;;31.20;83.80;;;;;;5053234;28;20434;-73
2023/09/09 06:55:44;;;;;;;14.87;13.47;;;30.90;83.70;;;;;;5047654;28;20467;-74
2023/09/09 06:58:12;;;;;;;14.00;12.80;;;30.90;83.80;;;;;;5048992;28;20445;-69
2023/09/09 07:00:39;;;;;;;14.83;13.43;;;31.10;83.80;;;;;;5042165;28;20446;-70
2023/09/09 07:03:07;;;;;;;14.30;13.10;;;31.60;82.70;;;;;;5049254;28;20446;-69
2023/09/09 07:05:34;;;;;;;14.70;13.17;;;31.50;81.50;;;;;;5049431;28;20470;-72
2023/09/09 07:08:02;;;;;;;13.50;12.30;;;32.00;81.90;;;;;;5049020;28;20856;-71
2023/09/09 07:10:30;;;;;;;13.10;11.80;;;32.20;81.30;;;;;;5053686;28;20568;-69
2023/09/09 07:12:57;;;;;;;16.93;14.47;;;32.70;81.20;;;;;;5049554;28;20434;-69
2023/09/09 07:15:24;;;;;;;12.00;10.90;;;33.30;79.00;;;;;;5049808;28;20477;-71
2023/09/09 07:17:51;;;;;;;21.00;18.70;;;33.70;77.70;;;;;;5051961;28;20840;-70
2023/09/09 07:20:18;;;;;;;12.93;11.83;;;33.90;76.90;;;;;;5053767;28;20452;-73
2023/09/09 07:22:45;;;;;;;12.83;11.80;;;34.20;76.30;;;;;;5050232;28;20442;-71
2023/09/09 07:25:13;;;;;;;11.97;10.93;;;34.30;75.80;;;;;;5046613;28;20823;-71
2023/09/09 07:27:40;;;;;;;12.93;11.87;;;34.60;75.30;;;;;;5052445;28;20534;-71
2023/09/09 07:30:09;;;;;;;11.67;10.57;;;34.40;75.20;;;;;;5053721;28;20438;-71
2023/09/09 07:32:36;;;;;;;12.27;11.17;;;34.30;75.10;;;;;;5042273;28;20940;-68
2023/09/09 07:35:03;;;;;;;11.90;10.80;;;34.00;75.70;;;;;;5046553;28;20444;-70
2023/09/09 07:37:30;;;;;;;11.60;10.60;;;34.00;75.60;;;;;;5049532;28;20477;-71
2023/09/09 07:39:58;;;;;;;12.10;10.90;;;34.10;76.30;;;;;;5045494;28;20537;-71
2023/09/09 07:42:26;;;;;;;114.17;103.63;;;34.40;75.70;;;;;;5040533;28;20755;-71
2023/09/09 07:44:53;;;;;;;42.40;37.67;;;34.40;75.50;;;;;;5045360;28;20573;-70
2023/09/09 07:47:20;;;;;;;15.87;14.23;;;34.20;75.80;;;;;;5050497;28;20829;-72
2023/09/09 07:49:47;;;;;;;54.23;48.67;;;34.40;75.20;;;;;;5053383;28;20446;-73
2023/09/09 07:52:14;;;;;;;24.17;21.80;;;34.50;75.20;;;;;;5052408;28;20529;-72
2023/09/09 07:54:53;;;;;;;17.40;14.93;;;34.70;75.60;;;;;;5052935;28;20879;-71
2023/09/09 07:57:20;;;;;;;16.90;15.30;;;35.20;74.40;;;;;;5052470;28;20891;-71
2023/09/09 07:59:48;;;;;;;16.93;15.23;;;35.40;74.00;;;;;;5048363;28;20438;-73
2023/09/09 08:02:15;;;;;;;32.83;29.83;;;35.60;72.70;;;;;;5043778;28;20451;-69
2023/09/09 08:04:42;;;;;;;18.70;17.00;;;35.90;72.20;;;;;;5050355;28;20488;-69
2023/09/09 08:07:09;;;;;;;17.23;15.73;;;35.80;72.10;;;;;;5048600;28;21004;-71
2023/09/09 08:09:36;;;;;;;20.30;18.43;;;35.90;71.90;;;;;;5051655;28;20445;-70
2023/09/09 08:12:03;;;;;;;17.10;15.60;;;36.10;72.00;;;;;;5046824;28;20446;-70
2023/09/09 08:14:31;;;;;;;15.40;13.80;;;36.30;71.50;;;;;;5045599;28;21037;-71
2023/09/09 08:16:59;;;;;;;14.57;13.20;;;36.20;71.10;;;;;;5042092;28;20796;-67
2023/09/09 08:19:26;;;;;;;20.43;18.53;;;36.20;71.30;;;;;;5049373;28;20954;-73
2023/09/09 08:21:53;;;;;;;35.83;32.13;;;36.40;70.80;;;;;;5050467;28;20496;-71
2023/09/09 08:24:21;;;;;;;15.00;13.73;;;36.40;71.00;;;;;;5050751;28;20484;-72
2023/09/09 08:26:48;;;;;;;20.17;18.23;;;36.80;70.30;;;;;;5051168;28;20474;-69
2023/09/09 08:29:15;;;;;;;13.47;12.23;;;37.00;69.90;;;;;;5041460;28;20465;-69
2023/09/09 08:31:43;;;;;;;15.17;13.77;;;36.60;70.10;;;;;;5047996;28;20632;-71
2023/09/09 08:34:11;;;;;;;62.30;56.07;;;36.60;69.70;;;;;;5046869;28;20438;-71
2023/09/09 08:36:38;;;;;;;28.40;25.90;;;36.60;70.60;;;;;;5044660;28;20546;-69
2023/09/09 08:39:05;;;;;;;16.30;15.00;;;37.00;70.30;;;;;;5050242;28;20442;-70
2023/09/09 08:41:44;;;;;;;18.00;16.27;;;36.80;69.80;;;;;;5057571;28;20458;-70
2023/09/09 08:44:19;;;;;;;17.27;15.80;;;36.60;70.10;;;;;;5057907;28;20538;-68
2023/09/09 08:46:46;;;;;;;31.10;28.00;;;37.10;69.90;;;;;;5031556;28;20519;-69
2023/09/09 08:49:18;;;;;;;38.07;33.97;;;37.40;69.00;;;;;;5047305;28;20923;-70
2023/09/09 08:51:51;;;;;;;31.23;28.20;;;37.20;68.60;;;;;;5048451;28;20439;-73
2023/09/09 08:54:18;;;;;;;13.37;12.03;;;37.50;68.90;;;;;;5028222;28;20439;-72
2023/09/09 08:56:46;;;;;;;18.03;16.10;;;37.80;68.30;;;;;;5046559;28;20473;-70
2023/09/09 08:59:14;;;;;;;14.03;12.53;;;37.80;67.50;;;;;;5042250;28;20869;-71
2023/09/09 09:01:42;;;;;;;13.00;11.83;;;38.30;67.70;;;;;;5047199;28;20454;-70
2023/09/09 09:04:09;;;;;;;29.73;27.20;;;38.20;66.60;;;;;;5044176;28;20776;-71
2023/09/09 09:06:38;;;;;;;18.40;16.80;;;38.30;66.80;;;;;;5039539;28;20836;-73
2023/09/09 09:09:06;;;;;;;15.00;13.70;;;38.60;66.60;;;;;;5045383;28;20447;-71
2023/09/09 09:11:32;;;;;;;12.60;11.30;;;38.30;66.40;;;;;;5045788;28;20492;-71
2023/09/09 09:14:07;;;;;;;30.63;27.47;;;38.20;66.70;;;;;;5044895;28;20534;-72
2023/09/09 09:16:38;;;;;;;16.60;15.10;;;38.00;67.40;;;;;;5041723;28;20458;-71
2023/09/09 09:19:06;;;;;;;13.83;12.43;;;38.20;67.30;;;;;;5044405;28;20464;-73
2023/09/09 09:21:35;;;;;;;12.33;11.33;;;38.00;66.90;;;;;;5041618;28;20544;-72
2023/09/09 09:24:04;;;;;;;34.13;30.83;;;37.90;67.30;;;;;;5043724;28;20482;-72
2023/09/09 09:26:31;;;;;;;12.40;11.40;;;38.20;67.20;;;;;;5046746;28;20552;-73
2023/09/09 09:29:03;;;;;;;20.47;18.40;;;38.40;66.90;;;;;;5046858;28;20453;-74
2023/09/09 09:31:31;;;;;;;18.87;17.17;;;38.60;67.00;;;;;;5043731;28;20511;-75
2023/09/09 09:33:59;;;;;;;35.10;31.50;;;38.90;65.80;;;;;;5044565;28;20929;-71
2023/09/09 09:36:32;;;;;;;13.33;12.13;;;38.70;65.30;;;;;;5045457;28;20501;-76
2023/09/09 09:39:09;;;;;;;11.30;10.40;;;38.50;65.50;;;;;;5039554;28;20815;-71
2023/09/09 09:41:39;;;;;;;12.40;11.30;;;38.20;67.10;;;;;;5025800;28;20450;-71
2023/09/09 09:44:18;;;;;;;12.13;11.03;;;38.20;66.90;;;;;;5051310;28;20500;-73
2023/09/09 09:47:00;;;;;;;12.50;11.50;;;38.20;66.80;;;;;;5043933;28;20484;-72
2023/09/09 09:49:38;;;;;;;11.73;10.83;;;37.10;68.20;;;;;;5047635;28;20446;-71
2023/09/09 09:52:06;;;;;;;11.87;10.87;;;36.60;69.60;;;;;;5045472;28;20532;-73
2023/09/09 09:54:34;;;;;;;12.70;11.70;;;36.40;71.40;;;;;;5047142;28;20442;-70
2023/09/09 09:57:04;;;;;;;12.43;11.43;;;36.30;71.10;;;;;;5045230;28;20546;-73
2023/09/09 09:59:33;;;;;;;13.10;12.00;;;36.10;70.60;;;;;;5044120;28;20527;-72
2023/09/09 10:02:00;;;;;;;11.73;10.67;;;36.10;71.00;;;;;;5046108;28;20598;-71
2023/09/09 10:04:29;;;;;;;11.40;10.27;;;36.00;72.40;;;;;;5044858;28;20582;-70
2023/09/09 10:06:58;;;;;;;11.43;10.53;;;36.10;72.00;;;;;;5043336;28;20490;-72
2023/09/09 10:09:33;;;;;;;12.93;11.70;;;36.00;73.00;;;;;;5043323;28;20441;-74
2023/09/09 10:12:06;;;;;;;11.70;10.53;;;36.30;72.00;;;;;;5049589;28;20543;-70
2023/09/09 10:14:37;;;;;;;11.73;10.63;;;36.40;72.20;;;;;;5053785;28;20525;-72
2023/09/09 10:17:07;;;;;;;11.90;10.90;;;36.10;71.60;;;;;;5041731;28;20493;-72
2023/09/09 10:19:36;;;;;;;10.13;9.10;;;36.00;72.20;;;;;;5047124;28;20439;-69
2023/09/09 10:22:05;;;;;;;11.13;10.23;;;35.80;73.00;;;;;;5039743;28;20442;-69
2023/09/09 10:24:33;;;;;;;11.30;9.87;;;35.80;73.70;;;;;;5051944;28;20477;-70
2023/09/09 10:27:03;;;;;;;11.50;10.50;;;35.30;74.40;;;;;;5049086;28;20461;-70
2023/09/09 10:29:31;;;;;;;11.57;10.47;;;35.20;75.10;;;;;;5046480;28;21024;-71
2023/09/09 10:32:02;;;;;;;10.47;9.67;;;35.20;75.50;;;;;;5053305;28;20434;-71
2023/09/09 10:34:30;;;;;;;10.70;9.80;;;35.20;75.50;;;;;;5051324;28;20438;-69
2023/09/09 10:36:59;;;;;;;10.10;9.30;;;35.10;75.60;;;;;;5049934;28;20464;-71
2023/09/09 10:39:27;;;;;;;16.00;10.00;;;34.90;75.90;;;;;;5049681;28;20528;-70
2023/09/09 10:41:55;;;;;;;11.60;10.70;;;34.80;76.30;;;;;;5048745;28;20453;-72
2023/09/09 10:44:24;;;;;;;11.37;10.33;;;34.40;78.00;;;;;;5049756;28;20442;-71
2023/09/09 10:46:55;;;;;;;12.27;9.67;;;34.00;78.50;;;;;;5048762;28;20549;-72
2023/09/09 10:49:26;;;;;;;10.77;9.77;;;33.80;79.70;;;;;;5047402;28;20446;-72
2023/09/09 10:51:55;;;;;;;10.83;9.73;;;33.20;79.60;;;;;;5051920;28;20456;-73
2023/09/09 10:54:23;;;;;;;10.40;9.07;;;33.20;81.00;;;;;;5050339;28;20442;-70
2023/09/09 10:56:52;;;;;;;10.70;9.80;;;33.10;81.10;;;;;;5053787;28;20462;-72
2023/09/09 10:59:20;;;;;;;11.07;9.23;;;33.00;81.50;;;;;;5048274;28;20438;-72
2023/09/09 11:01:49;;;;;;;10.10;9.10;;;32.90;82.20;;;;;;5052397;28;20599;-70
2023/09/09 11:04:21;;;;;;;11.17;9.63;;;32.80;81.90;;;;;;5048947;28;20439;-72
2023/09/09 11:07:07;;;;;;;10.70;7.90;;;32.70;81.30;;;;;;5050688;28;20668;-70
2023/09/09 11:09:34;;;;;;;9.50;8.70;;;32.70;80.80;;;;;;5054186;28;20947;-72
2023/09/09 11:12:11;;;;;;;9.70;8.50;;;32.50;80.20;;;;;;5053604;28;20500;-71
2023/09/09 11:14:37;;;;;;;10.27;9.23;;;32.30;80.20;;;;;;5047436;28;20464;-74
2023/09/09 11:17:10;;;;;;;11.10;9.13;;;32.40;80.90;;;;;;5055014;28;20984;-71
2023/09/09 11:19:38;;;;;;;8.90;8.10;;;32.40;80.60;;;;;;5055407;28;20509;-69
2023/09/09 11:22:08;;;;;;;9.30;7.90;;;32.30;80.10;;;;;;5054224;28;20466;-69
2023/09/09 11:24:35;;;;;;;10.50;8.80;;;32.30;80.00;;;;;;5057560;28;20472;-70
2023/09/09 11:27:03;;;;;;;8.50;7.70;;;32.00;81.10;;;;;;5050296;28;20545;-71
2023/09/09 11:29:31;;;;;;;9.60;8.70;;;32.20;80.70;;;;;;5054717;28;20445;-72
2023/09/09 11:31:58;;;;;;;13.47;8.83;;;32.10;79.80;;;;;;5056562;28;20805;-70
2023/09/09 11:34:33;;;;;;;10.93;9.87;;;32.10;81.00;;;;;;5051705;28;20517;-71
2023/09/09 11:37:02;;;;;;;8.90;8.10;;;31.90;81.20;;;;;;5049550;28;21063;-72
2023/09/09 11:39:28;;;;;;;10.80;8.57;;;32.00;81.10;;;;;;5054008;28;20450;-74
2023/09/09 11:41:55;;;;;;;8.93;8.13;;;32.00;81.50;;;;;;5045807;28;20478;-71
2023/09/09 11:44:22;;;;;;;8.37;7.53;;;31.80;79.60;;;;;;5053101;28;20974;-73
2023/09/09 11:46:50;;;;;;;8.00;7.20;;;31.70;77.90;;;;;;5053268;28;20990;-73
2023/09/09 11:49:18;;;;;;;9.73;8.07;;;31.70;78.90;;;;;;5054216;28;20794;-74
2023/09/09 11:51:47;;;;;;;9.13;8.23;;;31.40;79.10;;;;;;5046507;28;20503;-71
2023/09/09 11:54:19;;;;;;;9.77;7.10;;;31.40;80.10;;;;;;5052789;28;20448;-69
2023/09/09 11:56:46;;;;;;;9.97;7.80;;;31.40;80.40;;;;;;5052029;28;20537;-71
2023/09/09 11:59:13;;;;;;;8.00;7.27;;;31.60;81.10;;;;;;5052566;28;20472;-72
2023/09/09 12:01:41;;;;;;;8.60;7.80;;;31.70;80.00;;;;;;5047769;28;20465;-74
2023/09/09 12:04:09;;;;;;;9.13;8.23;;;31.80;79.60;;;;;;5051498;28;20430;-73
2023/09/09 12:06:37;;;;;;;8.67;7.97;;;31.70;80.00;;;;;;5048638;28;20505;-74
2023/09/09 12:09:07;;;;;;;8.90;7.80;;;31.70;80.00;;;;;;5046633;28;20430;-69
2023/09/09 12:11:35;;;;;;;9.80;8.80;;;31.60;79.70;;;;;;5055929;28;20853;-72
2023/09/09 12:14:05;;;;;;;8.70;8.00;;;31.60;80.00;;;;;;5057488;28;20489;-68
2023/09/09 12:16:34;;;;;;;10.03;7.80;;;31.70;80.90;;;;;;5056817;28;20466;-72
2023/09/09 12:19:01;;;;;;;8.03;7.27;;;31.70;79.20;;;;;;5043960;28;20526;-71
2023/09/09 12:21:29;;;;;;;7.83;7.23;;;31.70;79.90;;;;;;5046326;28;20478;-70
2023/09/09 12:24:00;;;;;;;9.43;8.30;;;31.70;80.30;;;;;;5050986;28;20458;-73
2023/09/09 12:26:29;;;;;;;9.93;8.80;;;31.60;80.20;;;;;;5041131;28;20577;-70
2023/09/09 12:29:06;;;;;;;7.90;7.20;;;31.70;80.00;;;;;;5045371;28;20446;-72
2023/09/09 12:31:34;;;;;;;8.50;7.73;;;31.50;79.60;;;;;;5040572;28;20493;-72
2023/09/09 12:34:01;;;;;;;9.90;8.43;;;31.30;80.10;;;;;;5043749;28;20447;-73
2023/09/09 12:36:33;;;;;;;8.87;7.97;;;31.50;80.20;;;;;;5038415;28;20550;-75